sensor_id;sensor_type;location;lat;lon;timestamp;temperature;humidity
1297;DHT22;641;48.492;9.184;2023-05-19T00:01:27;12.60;54.10
1297;DHT22;641;48.492;9.184;2023-05-19T00:03:54;12.60;54.40
1297;DHT22;641;48.492;9.184;2023-05-19T00:06:27;12.60;54.10
1297;DHT22;641;48.492;9.184;2023-05-19T00:08:58;12.60;53.50
1297;DHT22;641;48.492;9.184;2023-05-19T00:11:25;12.60;54.00
1297;DHT22;641;48.492;9.184;2023-05-19T00:13:56;12.60;53.80
1297;DHT22;641;48.492;9.184;2023-05-19T00:16:22;12.50;54.40
1297;DHT22;641;48.492;9.184;2023-05-19T00:18:48;12.50;54.70
1297;DHT22;641;48.492;9.184;2023-05-19T00:21:14;12.50;55.30
1297;DHT22;641;48.492;9.184;2023-05-19T00:23:41;12.40;56.40
1297;DHT22;641;48.492;9.184;2023-05-19T00:26:07;12.40;55.80
1297;DHT22;641;48.492;9.184;2023-05-19T00:28:33;12.30;55.90
1297;DHT22;641;48.492;9.184;2023-05-19T00:30:58;12.30;56.40
1297;DHT22;641;48.492;9.184;2023-05-19T00:33:25;12.20;56.60
1297;DHT22;641;48.492;9.184;2023-05-19T00:35:50;12.20;56.60
1297;DHT22;641;48.492;9.184;2023-05-19T00:38:16;12.20;56.50
1297;DHT22;641;48.492;9.184;2023-05-19T00:40:42;12.20;57.00
1297;DHT22;641;48.492;9.184;2023-05-19T00:43:07;12.10;57.30
1297;DHT22;641;48.492;9.184;2023-05-19T00:45:33;12.10;57.20
1297;DHT22;641;48.492;9.184;2023-05-19T00:47:59;12.10;57.30
1297;DHT22;641;48.492;9.184;2023-05-19T00:50:25;12.20;58.10
1297;DHT22;641;48.492;9.184;2023-05-19T00:52:53;12.20;57.90
1297;DHT22;641;48.492;9.184;2023-05-19T00:55:21;12.10;57.20
1297;DHT22;641;48.492;9.184;2023-05-19T00:57:48;12.10;57.00
1297;DHT22;641;48.492;9.184;2023-05-19T01:00:14;12.10;56.40
1297;DHT22;641;48.492;9.184;2023-05-19T01:02:41;12.10;56.50
1297;DHT22;641;48.492;9.184;2023-05-19T01:05:07;12.20;57.20
1297;DHT22;641;48.492;9.184;2023-05-19T01:07:33;12.10;56.20
1297;DHT22;641;48.492;9.184;2023-05-19T01:09:59;12.20;56.20
1297;DHT22;641;48.492;9.184;2023-05-19T01:12:25;12.20;56.40
1297;DHT22;641;48.492;9.184;2023-05-19T01:14:51;12.10;55.90
1297;DHT22;641;48.492;9.184;2023-05-19T01:17:44;12.10;56.50
1297;DHT22;641;48.492;9.184;2023-05-19T01:20:23;12.20;55.70
1297;DHT22;641;48.492;9.184;2023-05-19T01:23:14;12.20;55.80
1297;DHT22;641;48.492;9.184;2023-05-19T01:26:16;12.20;55.20
1297;DHT22;641;48.492;9.184;2023-05-19T01:31:26;12.20;55.20
1297;DHT22;641;48.492;9.184;2023-05-19T01:33:53;12.10;55.10
1297;DHT22;641;48.492;9.184;2023-05-19T01:36:21;12.10;55.80
1297;DHT22;641;48.492;9.184;2023-05-19T01:38:53;12.10;55.30
1297;DHT22;641;48.492;9.184;2023-05-19T01:41:19;12.10;56.00
1297;DHT22;641;48.492;9.184;2023-05-19T01:43:47;12.10;56.10
1297;DHT22;641;48.492;9.184;2023-05-19T01:46:14;12.10;56.10
1297;DHT22;641;48.492;9.184;2023-05-19T01:48:41;12.10;55.00
1297;DHT22;641;48.492;9.184;2023-05-19T01:51:07;12.00;54.80
1297;DHT22;641;48.492;9.184;2023-05-19T01:53:33;12.00;54.80
1297;DHT22;641;48.492;9.184;2023-05-19T01:55:58;12.00;54.90
1297;DHT22;641;48.492;9.184;2023-05-19T02:01:08;12.00;55.50
1297;DHT22;641;48.492;9.184;2023-05-19T02:03:43;12.00;55.40
1297;DHT22;641;48.492;9.184;2023-05-19T02:06:55;11.90;56.40
1297;DHT22;641;48.492;9.184;2023-05-19T02:09:52;11.90;55.40
1297;DHT22;641;48.492;9.184;2023-05-19T02:15:15;11.90;55.30
1297;DHT22;641;48.492;9.184;2023-05-19T02:17:42;12.00;55.60
1297;DHT22;641;48.492;9.184;2023-05-19T02:20:12;12.00;55.30
1297;DHT22;641;48.492;9.184;2023-05-19T02:22:39;12.00;55.40
1297;DHT22;641;48.492;9.184;2023-05-19T02:25:05;11.90;55.80
1297;DHT22;641;48.492;9.184;2023-05-19T02:27:32;11.80;55.30
1297;DHT22;641;48.492;9.184;2023-05-19T02:29:58;11.80;56.00
1297;DHT22;641;48.492;9.184;2023-05-19T02:32:24;11.80;55.40
1297;DHT22;641;48.492;9.184;2023-05-19T02:34:49;11.80;55.60
1297;DHT22;641;48.492;9.184;2023-05-19T02:37:15;11.80;55.40
1297;DHT22;641;48.492;9.184;2023-05-19T02:39:41;11.80;55.70
1297;DHT22;641;48.492;9.184;2023-05-19T02:42:07;11.80;55.40
1297;DHT22;641;48.492;9.184;2023-05-19T02:44:32;11.70;56.00
1297;DHT22;641;48.492;9.184;2023-05-19T02:46:58;11.70;55.90
1297;DHT22;641;48.492;9.184;2023-05-19T02:49:23;11.70;55.80
1297;DHT22;641;48.492;9.184;2023-05-19T02:51:49;11.70;56.10
1297;DHT22;641;48.492;9.184;2023-05-19T02:54:15;11.70;56.00
1297;DHT22;641;48.492;9.184;2023-05-19T02:56:41;11.70;56.00
1297;DHT22;641;48.492;9.184;2023-05-19T02:59:06;11.60;56.30
1297;DHT22;641;48.492;9.184;2023-05-19T03:01:32;11.60;56.90
1297;DHT22;641;48.492;9.184;2023-05-19T03:03:58;11.70;56.40
1297;DHT22;641;48.492;9.184;2023-05-19T03:06:23;11.60;55.80
1297;DHT22;641;48.492;9.184;2023-05-19T03:08:49;11.60;55.90
1297;DHT22;641;48.492;9.184;2023-05-19T03:11:15;11.70;56.00
1297;DHT22;641;48.492;9.184;2023-05-19T03:13:41;11.60;55.80
1297;DHT22;641;48.492;9.184;2023-05-19T03:16:07;11.60;56.20
1297;DHT22;641;48.492;9.184;2023-05-19T03:18:35;11.70;55.50
1297;DHT22;641;48.492;9.184;2023-05-19T03:21:01;11.60;55.40
1297;DHT22;641;48.492;9.184;2023-05-19T03:23:27;11.60;56.10
1297;DHT22;641;48.492;9.184;2023-05-19T03:25:52;11.60;56.00
1297;DHT22;641;48.492;9.184;2023-05-19T03:28:21;11.60;56.40
1297;DHT22;641;48.492;9.184;2023-05-19T03:30:51;11.50;55.70
1297;DHT22;641;48.492;9.184;2023-05-19T03:33:17;11.50;56.10
1297;DHT22;641;48.492;9.184;2023-05-19T03:35:42;11.50;55.80
1297;DHT22;641;48.492;9.184;2023-05-19T03:38:11;11.50;56.00
1297;DHT22;641;48.492;9.184;2023-05-19T03:40:36;11.50;56.10
1297;DHT22;641;48.492;9.184;2023-05-19T03:43:02;11.60;56.70
1297;DHT22;641;48.492;9.184;2023-05-19T03:45:27;11.50;56.80
1297;DHT22;641;48.492;9.184;2023-05-19T03:47:54;11.60;56.70
1297;DHT22;641;48.492;9.184;2023-05-19T03:50:19;11.50;57.80
1297;DHT22;641;48.492;9.184;2023-05-19T03:52:45;11.50;57.50
1297;DHT22;641;48.492;9.184;2023-05-19T03:55:12;11.40;57.90
1297;DHT22;641;48.492;9.184;2023-05-19T03:57:41;11.40;58.40
1297;DHT22;641;48.492;9.184;2023-05-19T04:00:09;11.40;58.10
1297;DHT22;641;48.492;9.184;2023-05-19T04:02:38;11.40;58.10
1297;DHT22;641;48.492;9.184;2023-05-19T04:05:04;11.40;58.40
1297;DHT22;641;48.492;9.184;2023-05-19T04:07:30;11.30;58.90
1297;DHT22;641;48.492;9.184;2023-05-19T04:09:56;11.40;59.00
1297;DHT22;641;48.492;9.184;2023-05-19T04:12:21;11.40;59.20
1297;DHT22;641;48.492;9.184;2023-05-19T04:14:47;11.30;59.60
1297;DHT22;641;48.492;9.184;2023-05-19T04:17:12;11.40;60.40
1297;DHT22;641;48.492;9.184;2023-05-19T04:19:38;11.30;59.80
1297;DHT22;641;48.492;9.184;2023-05-19T04:22:04;11.40;60.10
1297;DHT22;641;48.492;9.184;2023-05-19T04:24:30;11.30;60.70
1297;DHT22;641;48.492;9.184;2023-05-19T04:26:55;11.30;60.00
1297;DHT22;641;48.492;9.184;2023-05-19T04:29:21;11.30;60.40
1297;DHT22;641;48.492;9.184;2023-05-19T04:31:48;11.40;60.70
1297;DHT22;641;48.492;9.184;2023-05-19T04:34:13;11.30;59.80
1297;DHT22;641;48.492;9.184;2023-05-19T04:36:39;11.30;60.90
1297;DHT22;641;48.492;9.184;2023-05-19T04:39:05;11.40;60.50
1297;DHT22;641;48.492;9.184;2023-05-19T04:41:33;11.50;60.70
1297;DHT22;641;48.492;9.184;2023-05-19T04:43:59;11.50;60.90
1297;DHT22;641;48.492;9.184;2023-05-19T04:46:25;11.60;59.40
1297;DHT22;641;48.492;9.184;2023-05-19T04:48:51;11.60;59.20
1297;DHT22;641;48.492;9.184;2023-05-19T04:51:18;11.70;58.10
1297;DHT22;641;48.492;9.184;2023-05-19T04:53:44;11.70;57.50
1297;DHT22;641;48.492;9.184;2023-05-19T04:56:10;11.70;56.70
1297;DHT22;641;48.492;9.184;2023-05-19T04:58:39;11.80;57.60
1297;DHT22;641;48.492;9.184;2023-05-19T05:01:05;11.80;57.60
1297;DHT22;641;48.492;9.184;2023-05-19T05:03:31;11.90;57.50
1297;DHT22;641;48.492;9.184;2023-05-19T05:05:58;12.00;57.70
1297;DHT22;641;48.492;9.184;2023-05-19T05:08:24;12.00;58.20
1297;DHT22;641;48.492;9.184;2023-05-19T05:10:50;12.00;57.90
1297;DHT22;641;48.492;9.184;2023-05-19T05:13:22;11.90;58.50
1297;DHT22;641;48.492;9.184;2023-05-19T05:15:48;11.80;58.10
1297;DHT22;641;48.492;9.184;2023-05-19T05:18:14;11.90;58.80
1297;DHT22;641;48.492;9.184;2023-05-19T05:20:44;12.00;59.60
1297;DHT22;641;48.492;9.184;2023-05-19T05:23:11;12.10;59.10
1297;DHT22;641;48.492;9.184;2023-05-19T05:25:41;12.20;59.10
1297;DHT22;641;48.492;9.184;2023-05-19T05:28:07;12.20;58.80
1297;DHT22;641;48.492;9.184;2023-05-19T05:30:33;12.20;58.70
1297;DHT22;641;48.492;9.184;2023-05-19T05:32:59;12.30;58.90
1297;DHT22;641;48.492;9.184;2023-05-19T05:35:26;12.20;58.80
1297;DHT22;641;48.492;9.184;2023-05-19T05:37:52;12.30;58.30
1297;DHT22;641;48.492;9.184;2023-05-19T05:40:17;12.40;59.20
1297;DHT22;641;48.492;9.184;2023-05-19T05:42:43;12.40;57.70
1297;DHT22;641;48.492;9.184;2023-05-19T05:45:09;12.40;59.00
1297;DHT22;641;48.492;9.184;2023-05-19T05:47:35;12.50;58.70
1297;DHT22;641;48.492;9.184;2023-05-19T05:50:08;12.60;57.80
1297;DHT22;641;48.492;9.184;2023-05-19T05:52:35;12.60;58.20
1297;DHT22;641;48.492;9.184;2023-05-19T05:55:04;12.70;58.60
1297;DHT22;641;48.492;9.184;2023-05-19T05:57:31;12.80;57.50
1297;DHT22;641;48.492;9.184;2023-05-19T05:59:59;12.70;56.80
1297;DHT22;641;48.492;9.184;2023-05-19T06:02:25;12.70;58.20
1297;DHT22;641;48.492;9.184;2023-05-19T06:04:52;12.70;57.70
1297;DHT22;641;48.492;9.184;2023-05-19T06:07:18;12.50;54.80
1297;DHT22;641;48.492;9.184;2023-05-19T06:09:44;12.50;57.00
1297;DHT22;641;48.492;9.184;2023-05-19T06:12:09;12.50;57.40
1297;DHT22;641;48.492;9.184;2023-05-19T06:14:35;12.50;57.30
1297;DHT22;641;48.492;9.184;2023-05-19T06:17:01;12.50;56.70
1297;DHT22;641;48.492;9.184;2023-05-19T06:19:27;12.50;56.70
1297;DHT22;641;48.492;9.184;2023-05-19T06:21:52;12.60;56.90
1297;DHT22;641;48.492;9.184;2023-05-19T06:24:18;12.70;56.30
1297;DHT22;641;48.492;9.184;2023-05-19T06:26:43;12.90;55.80
1297;DHT22;641;48.492;9.184;2023-05-19T06:29:09;13.00;55.30
1297;DHT22;641;48.492;9.184;2023-05-19T06:31:35;13.10;54.90
1297;DHT22;641;48.492;9.184;2023-05-19T06:34:01;13.30;54.00
1297;DHT22;641;48.492;9.184;2023-05-19T06:36:27;13.50;53.30
1297;DHT22;641;48.492;9.184;2023-05-19T06:38:52;13.70;52.70
1297;DHT22;641;48.492;9.184;2023-05-19T06:41:18;13.80;51.60
1297;DHT22;641;48.492;9.184;2023-05-19T06:43:43;13.70;52.20
1297;DHT22;641;48.492;9.184;2023-05-19T06:46:09;13.50;52.20
1297;DHT22;641;48.492;9.184;2023-05-19T06:48:37;13.30;52.40
1297;DHT22;641;48.492;9.184;2023-05-19T06:51:03;13.40;53.20
1297;DHT22;641;48.492;9.184;2023-05-19T06:53:29;13.20;52.80
1297;DHT22;641;48.492;9.184;2023-05-19T06:55:54;13.20;53.20
1297;DHT22;641;48.492;9.184;2023-05-19T06:58:20;13.30;53.10
1297;DHT22;641;48.492;9.184;2023-05-19T07:00:46;13.30;53.20
1297;DHT22;641;48.492;9.184;2023-05-19T07:03:11;13.20;53.30
1297;DHT22;641;48.492;9.184;2023-05-19T07:05:37;13.30;52.70
1297;DHT22;641;48.492;9.184;2023-05-19T07:08:02;13.00;52.90
1297;DHT22;641;48.492;9.184;2023-05-19T07:10:29;13.10;53.30
1297;DHT22;641;48.492;9.184;2023-05-19T07:12:54;13.20;53.70
1297;DHT22;641;48.492;9.184;2023-05-19T07:15:20;13.20;52.70
1297;DHT22;641;48.492;9.184;2023-05-19T07:17:45;13.10;53.00
1297;DHT22;641;48.492;9.184;2023-05-19T07:20:12;13.40;53.80
1297;DHT22;641;48.492;9.184;2023-05-19T07:22:37;13.50;53.00
1297;DHT22;641;48.492;9.184;2023-05-19T07:25:05;13.70;53.00
1297;DHT22;641;48.492;9.184;2023-05-19T07:27:31;13.80;52.90
1297;DHT22;641;48.492;9.184;2023-05-19T07:29:57;13.60;51.60
1297;DHT22;641;48.492;9.184;2023-05-19T07:32:23;13.10;52.90
1297;DHT22;641;48.492;9.184;2023-05-19T07:34:49;13.20;54.40
1297;DHT22;641;48.492;9.184;2023-05-19T07:37:14;13.50;54.30
1297;DHT22;641;48.492;9.184;2023-05-19T07:39:40;13.60;53.70
1297;DHT22;641;48.492;9.184;2023-05-19T07:42:06;13.80;52.70
1297;DHT22;641;48.492;9.184;2023-05-19T07:44:32;13.80;52.00
1297;DHT22;641;48.492;9.184;2023-05-19T07:46:59;13.80;51.70
1297;DHT22;641;48.492;9.184;2023-05-19T07:49:24;13.50;52.90
1297;DHT22;641;48.492;9.184;2023-05-19T07:51:51;13.60;53.90
1297;DHT22;641;48.492;9.184;2023-05-19T07:54:17;13.80;53.00
1297;DHT22;641;48.492;9.184;2023-05-19T07:56:43;13.90;54.40
1297;DHT22;641;48.492;9.184;2023-05-19T07:59:08;13.90;54.80
1297;DHT22;641;48.492;9.184;2023-05-19T08:01:34;13.80;54.40
1297;DHT22;641;48.492;9.184;2023-05-19T08:04:00;13.80;54.70
1297;DHT22;641;48.492;9.184;2023-05-19T08:06:25;13.90;54.50
1297;DHT22;641;48.492;9.184;2023-05-19T08:08:51;14.00;54.20
1297;DHT22;641;48.492;9.184;2023-05-19T08:11:18;14.10;54.80
1297;DHT22;641;48.492;9.184;2023-05-19T08:13:44;14.10;53.00
1297;DHT22;641;48.492;9.184;2023-05-19T08:16:11;14.10;54.30
1297;DHT22;641;48.492;9.184;2023-05-19T08:18:37;13.80;53.60
1297;DHT22;641;48.492;9.184;2023-05-19T08:21:03;13.80;54.80
1297;DHT22;641;48.492;9.184;2023-05-19T08:34:11;13.80;54.00
1297;DHT22;641;48.492;9.184;2023-05-19T08:36:37;13.90;54.90
1297;DHT22;641;48.492;9.184;2023-05-19T08:39:03;13.70;54.20
1297;DHT22;641;48.492;9.184;2023-05-19T08:41:28;13.70;55.20
1297;DHT22;641;48.492;9.184;2023-05-19T08:43:54;13.50;54.50
1297;DHT22;641;48.492;9.184;2023-05-19T08:46:20;13.70;54.90
1297;DHT22;641;48.492;9.184;2023-05-19T08:48:52;13.70;54.50
1297;DHT22;641;48.492;9.184;2023-05-19T08:54:13;13.60;55.80
1297;DHT22;641;48.492;9.184;2023-05-19T08:56:43;13.80;54.70
1297;DHT22;641;48.492;9.184;2023-05-19T08:59:12;14.00;54.50
1297;DHT22;641;48.492;9.184;2023-05-19T09:01:38;14.00;53.50
1297;DHT22;641;48.492;9.184;2023-05-19T09:04:05;14.10;54.40
1297;DHT22;641;48.492;9.184;2023-05-19T09:06:30;14.20;54.60
1297;DHT22;641;48.492;9.184;2023-05-19T09:08:59;14.30;53.30
1297;DHT22;641;48.492;9.184;2023-05-19T09:11:24;14.20;53.70
1297;DHT22;641;48.492;9.184;2023-05-19T09:13:51;14.10;54.00
1297;DHT22;641;48.492;9.184;2023-05-19T09:16:16;14.30;53.80
1297;DHT22;641;48.492;9.184;2023-05-19T09:18:55;14.50;54.80
1297;DHT22;641;48.492;9.184;2023-05-19T09:21:31;14.60;53.30
1297;DHT22;641;48.492;9.184;2023-05-19T09:24:02;14.70;53.40
1297;DHT22;641;48.492;9.184;2023-05-19T09:26:48;14.90;54.00
1297;DHT22;641;48.492;9.184;2023-05-19T09:29:17;14.90;52.30
1297;DHT22;641;48.492;9.184;2023-05-19T09:31:50;14.50;53.20
1297;DHT22;641;48.492;9.184;2023-05-19T09:34:16;14.40;53.40
1297;DHT22;641;48.492;9.184;2023-05-19T09:36:42;14.10;53.70
1297;DHT22;641;48.492;9.184;2023-05-19T09:39:19;13.90;54.10
1297;DHT22;641;48.492;9.184;2023-05-19T09:41:45;14.00;54.40
1297;DHT22;641;48.492;9.184;2023-05-19T09:44:23;14.20;54.60
1297;DHT22;641;48.492;9.184;2023-05-19T09:46:53;14.20;53.70
1297;DHT22;641;48.492;9.184;2023-05-19T09:49:23;13.90;53.90
1297;DHT22;641;48.492;9.184;2023-05-19T09:51:55;13.70;53.50
1297;DHT22;641;48.492;9.184;2023-05-19T09:54:22;13.60;54.50
1297;DHT22;641;48.492;9.184;2023-05-19T09:57:06;13.60;54.90
1297;DHT22;641;48.492;9.184;2023-05-19T09:59:32;13.70;54.90
1297;DHT22;641;48.492;9.184;2023-05-19T10:01:58;13.90;54.70
1297;DHT22;641;48.492;9.184;2023-05-19T10:04:28;14.10;54.70
1297;DHT22;641;48.492;9.184;2023-05-19T10:06:55;14.30;53.20
1297;DHT22;641;48.492;9.184;2023-05-19T10:09:25;14.40;53.10
1297;DHT22;641;48.492;9.184;2023-05-19T10:11:52;14.50;53.90
1297;DHT22;641;48.492;9.184;2023-05-19T10:14:26;14.20;53.30
1297;DHT22;641;48.492;9.184;2023-05-19T10:16:53;14.10;53.50
1297;DHT22;641;48.492;9.184;2023-05-19T10:19:27;14.00;54.60
1297;DHT22;641;48.492;9.184;2023-05-19T10:21:54;13.90;54.60
1297;DHT22;641;48.492;9.184;2023-05-19T10:24:20;13.90;55.00
1297;DHT22;641;48.492;9.184;2023-05-19T10:27:04;14.00;54.80
1297;DHT22;641;48.492;9.184;2023-05-19T10:29:35;13.90;54.50
1297;DHT22;641;48.492;9.184;2023-05-19T10:32:06;13.80;53.70
1297;DHT22;641;48.492;9.184;2023-05-19T10:40:18;13.80;54.90
1297;DHT22;641;48.492;9.184;2023-05-19T10:45:39;14.10;53.90
1297;DHT22;641;48.492;9.184;2023-05-19T10:48:10;14.20;53.80
1297;DHT22;641;48.492;9.184;2023-05-19T10:50:36;14.30;52.80
1297;DHT22;641;48.492;9.184;2023-05-19T10:53:02;14.30;52.90
1297;DHT22;641;48.492;9.184;2023-05-19T10:55:44;14.20;53.20
1297;DHT22;641;48.492;9.184;2023-05-19T10:58:11;14.10;52.80
1297;DHT22;641;48.492;9.184;2023-05-19T11:00:38;14.10;53.50
1297;DHT22;641;48.492;9.184;2023-05-19T11:03:13;14.20;53.40
1297;DHT22;641;48.492;9.184;2023-05-19T11:05:39;14.30;54.70
1297;DHT22;641;48.492;9.184;2023-05-19T11:08:05;14.40;53.20
1297;DHT22;641;48.492;9.184;2023-05-19T11:10:35;14.50;52.40
1297;DHT22;641;48.492;9.184;2023-05-19T11:13:03;14.40;52.60
1297;DHT22;641;48.492;9.184;2023-05-19T11:15:33;14.20;52.60
1297;DHT22;641;48.492;9.184;2023-05-19T11:18:00;14.00;52.90
1297;DHT22;641;48.492;9.184;2023-05-19T11:20:27;14.20;53.70
1297;DHT22;641;48.492;9.184;2023-05-19T11:28:07;14.20;52.80
1297;DHT22;641;48.492;9.184;2023-05-19T11:30:32;14.20;52.20
1297;DHT22;641;48.492;9.184;2023-05-19T11:32:58;14.10;53.00
1297;DHT22;641;48.492;9.184;2023-05-19T11:35:24;14.30;53.90
1297;DHT22;641;48.492;9.184;2023-05-19T11:37:53;14.50;52.00
1297;DHT22;641;48.492;9.184;2023-05-19T11:40:20;14.70;52.80
1297;DHT22;641;48.492;9.184;2023-05-19T11:42:45;14.70;52.80
1297;DHT22;641;48.492;9.184;2023-05-19T11:45:11;14.60;53.40
1297;DHT22;641;48.492;9.184;2023-05-19T11:47:37;14.60;53.50
1297;DHT22;641;48.492;9.184;2023-05-19T11:50:03;14.40;52.90
1297;DHT22;641;48.492;9.184;2023-05-19T11:52:29;14.50;54.30
1297;DHT22;641;48.492;9.184;2023-05-19T11:54:59;14.60;53.30
1297;DHT22;641;48.492;9.184;2023-05-19T11:57:25;14.70;52.40
1297;DHT22;641;48.492;9.184;2023-05-19T11:59:51;14.70;52.30
1297;DHT22;641;48.492;9.184;2023-05-19T12:02:20;14.70;51.60
1297;DHT22;641;48.492;9.184;2023-05-19T12:04:46;14.60;51.90
1297;DHT22;641;48.492;9.184;2023-05-19T12:07:15;14.70;52.10
1297;DHT22;641;48.492;9.184;2023-05-19T12:09:46;14.50;51.50
1297;DHT22;641;48.492;9.184;2023-05-19T12:12:21;14.50;53.10
1297;DHT22;641;48.492;9.184;2023-05-19T12:14:51;14.60;53.70
1297;DHT22;641;48.492;9.184;2023-05-19T12:17:18;14.60;54.20
1297;DHT22;641;48.492;9.184;2023-05-19T12:19:46;14.70;53.70
1297;DHT22;641;48.492;9.184;2023-05-19T12:22:13;14.70;53.00
1297;DHT22;641;48.492;9.184;2023-05-19T12:24:39;14.70;53.30
1297;DHT22;641;48.492;9.184;2023-05-19T12:29:35;14.90;53.90
1297;DHT22;641;48.492;9.184;2023-05-19T12:32:02;14.90;51.70
1297;DHT22;641;48.492;9.184;2023-05-19T12:34:28;15.00;52.40
1297;DHT22;641;48.492;9.184;2023-05-19T12:36:54;15.00;51.00
1297;DHT22;641;48.492;9.184;2023-05-19T12:39:20;14.90;51.50
1297;DHT22;641;48.492;9.184;2023-05-19T12:41:46;14.90;51.40
1297;DHT22;641;48.492;9.184;2023-05-19T12:44:14;14.80;52.60
1297;DHT22;641;48.492;9.184;2023-05-19T12:46:39;14.90;53.70
1297;DHT22;641;48.492;9.184;2023-05-19T12:49:05;14.80;51.00
1297;DHT22;641;48.492;9.184;2023-05-19T12:51:30;14.50;51.90
1297;DHT22;641;48.492;9.184;2023-05-19T12:53:56;14.40;50.80
1297;DHT22;641;48.492;9.184;2023-05-19T12:56:24;14.50;51.90
1297;DHT22;641;48.492;9.184;2023-05-19T12:58:53;14.50;51.40
1297;DHT22;641;48.492;9.184;2023-05-19T13:01:19;14.60;51.70
1297;DHT22;641;48.492;9.184;2023-05-19T13:03:44;14.70;51.80
1297;DHT22;641;48.492;9.184;2023-05-19T13:06:10;14.80;51.20
1297;DHT22;641;48.492;9.184;2023-05-19T13:08:37;14.80;51.70
1297;DHT22;641;48.492;9.184;2023-05-19T13:11:06;14.60;51.40
1297;DHT22;641;48.492;9.184;2023-05-19T13:13:32;14.70;52.70
1297;DHT22;641;48.492;9.184;2023-05-19T13:15:57;14.70;51.70
1297;DHT22;641;48.492;9.184;2023-05-19T13:18:23;14.80;52.90
1297;DHT22;641;48.492;9.184;2023-05-19T13:20:48;14.90;52.40
1297;DHT22;641;48.492;9.184;2023-05-19T13:23:15;14.80;50.90
1297;DHT22;641;48.492;9.184;2023-05-19T13:25:41;14.70;51.30
1297;DHT22;641;48.492;9.184;2023-05-19T13:28:07;14.60;51.70
1297;DHT22;641;48.492;9.184;2023-05-19T13:30:35;14.50;51.50
1297;DHT22;641;48.492;9.184;2023-05-19T13:33:01;14.70;53.00
1297;DHT22;641;48.492;9.184;2023-05-19T13:35:26;14.80;51.80
1297;DHT22;641;48.492;9.184;2023-05-19T13:37:52;14.80;51.10
1297;DHT22;641;48.492;9.184;2023-05-19T13:40:18;14.80;50.70
1297;DHT22;641;48.492;9.184;2023-05-19T13:42:44;14.70;51.40
1297;DHT22;641;48.492;9.184;2023-05-19T13:45:09;14.70;51.00
1297;DHT22;641;48.492;9.184;2023-05-19T13:47:36;14.90;51.60
1297;DHT22;641;48.492;9.184;2023-05-19T13:50:03;14.90;50.70
1297;DHT22;641;48.492;9.184;2023-05-19T13:52:28;15.10;51.30
1297;DHT22;641;48.492;9.184;2023-05-19T13:54:54;15.20;51.40
1297;DHT22;641;48.492;9.184;2023-05-19T13:57:24;15.10;50.10
1297;DHT22;641;48.492;9.184;2023-05-19T13:59:50;15.20;51.10
1297;DHT22;641;48.492;9.184;2023-05-19T14:02:16;15.10;50.30
1297;DHT22;641;48.492;9.184;2023-05-19T14:04:41;15.10;49.80
1297;DHT22;641;48.492;9.184;2023-05-19T14:07:07;15.00;51.00
1297;DHT22;641;48.492;9.184;2023-05-19T14:09:35;15.10;52.00
1297;DHT22;641;48.492;9.184;2023-05-19T14:12:00;15.20;51.70
1297;DHT22;641;48.492;9.184;2023-05-19T14:14:26;15.10;50.80
1297;DHT22;641;48.492;9.184;2023-05-19T14:16:52;15.00;51.10
1297;DHT22;641;48.492;9.184;2023-05-19T14:19:17;14.90;50.70
1297;DHT22;641;48.492;9.184;2023-05-19T14:21:43;14.70;50.90
1297;DHT22;641;48.492;9.184;2023-05-19T14:24:08;14.80;52.00
1297;DHT22;641;48.492;9.184;2023-05-19T14:26:34;14.70;51.20
1297;DHT22;641;48.492;9.184;2023-05-19T14:29:00;14.90;51.90
1297;DHT22;641;48.492;9.184;2023-05-19T14:31:25;15.10;52.20
1297;DHT22;641;48.492;9.184;2023-05-19T14:33:52;15.20;51.20
1297;DHT22;641;48.492;9.184;2023-05-19T14:36:17;15.20;51.20
1297;DHT22;641;48.492;9.184;2023-05-19T14:38:43;15.00;50.90
1297;DHT22;641;48.492;9.184;2023-05-19T14:41:08;14.90;51.70
1297;DHT22;641;48.492;9.184;2023-05-19T14:43:34;14.90;51.30
1297;DHT22;641;48.492;9.184;2023-05-19T14:45:59;14.70;51.40
1297;DHT22;641;48.492;9.184;2023-05-19T14:48:25;14.60;52.40
1297;DHT22;641;48.492;9.184;2023-05-19T14:50:51;14.60;53.10
1297;DHT22;641;48.492;9.184;2023-05-19T14:53:17;14.70;52.60
1297;DHT22;641;48.492;9.184;2023-05-19T14:55:43;14.70;52.20
1297;DHT22;641;48.492;9.184;2023-05-19T14:58:09;14.60;52.00
1297;DHT22;641;48.492;9.184;2023-05-19T15:00:34;14.60;53.30
1297;DHT22;641;48.492;9.184;2023-05-19T15:03:00;14.50;51.90
1297;DHT22;641;48.492;9.184;2023-05-19T15:05:26;14.40;52.90
1297;DHT22;641;48.492;9.184;2023-05-19T15:07:51;14.50;53.90
1297;DHT22;641;48.492;9.184;2023-05-19T15:10:17;14.50;52.90
1297;DHT22;641;48.492;9.184;2023-05-19T15:12:46;14.50;53.00
1297;DHT22;641;48.492;9.184;2023-05-19T15:15:11;14.50;52.70
1297;DHT22;641;48.492;9.184;2023-05-19T15:17:38;14.60;52.30
1297;DHT22;641;48.492;9.184;2023-05-19T15:20:04;14.70;52.00
1297;DHT22;641;48.492;9.184;2023-05-19T15:22:30;14.70;52.50
1297;DHT22;641;48.492;9.184;2023-05-19T15:24:55;14.60;52.00
1297;DHT22;641;48.492;9.184;2023-05-19T15:27:21;14.50;52.30
1297;DHT22;641;48.492;9.184;2023-05-19T15:29:47;14.40;52.40
1297;DHT22;641;48.492;9.184;2023-05-19T15:32:12;14.30;52.40
1297;DHT22;641;48.492;9.184;2023-05-19T15:38:00;14.50;52.80
1297;DHT22;641;48.492;9.184;2023-05-19T15:40:33;14.60;53.10
1297;DHT22;641;48.492;9.184;2023-05-19T15:42:59;14.60;52.80
1297;DHT22;641;48.492;9.184;2023-05-19T15:45:25;14.70;53.20
1297;DHT22;641;48.492;9.184;2023-05-19T15:47:50;14.60;52.40
1297;DHT22;641;48.492;9.184;2023-05-19T15:50:16;14.80;53.50
1297;DHT22;641;48.492;9.184;2023-05-19T15:52:41;14.80;52.60
1297;DHT22;641;48.492;9.184;2023-05-19T15:55:08;14.90;52.40
1297;DHT22;641;48.492;9.184;2023-05-19T15:57:33;15.00;52.50
1297;DHT22;641;48.492;9.184;2023-05-19T15:59:59;14.90;52.40
1297;DHT22;641;48.492;9.184;2023-05-19T16:02:24;15.10;52.20
1297;DHT22;641;48.492;9.184;2023-05-19T16:04:50;15.00;50.60
1297;DHT22;641;48.492;9.184;2023-05-19T16:07:15;15.10;51.80
1297;DHT22;641;48.492;9.184;2023-05-19T16:09:42;15.30;51.80
1297;DHT22;641;48.492;9.184;2023-05-19T16:12:08;15.30;51.30
1297;DHT22;641;48.492;9.184;2023-05-19T16:14:33;15.10;51.20
1297;DHT22;641;48.492;9.184;2023-05-19T16:17:03;15.20;51.90
1297;DHT22;641;48.492;9.184;2023-05-19T16:19:35;15.20;53.40
1297;DHT22;641;48.492;9.184;2023-05-19T16:22:00;15.20;52.30
1297;DHT22;641;48.492;9.184;2023-05-19T16:24:26;15.10;51.10
1297;DHT22;641;48.492;9.184;2023-05-19T16:26:52;14.90;52.00
1297;DHT22;641;48.492;9.184;2023-05-19T16:29:18;14.90;52.80
1297;DHT22;641;48.492;9.184;2023-05-19T16:31:43;15.00;51.80
1297;DHT22;641;48.492;9.184;2023-05-19T16:34:09;14.80;52.40
1297;DHT22;641;48.492;9.184;2023-05-19T16:36:34;15.00;53.60
1297;DHT22;641;48.492;9.184;2023-05-19T16:39:00;15.00;52.50
1297;DHT22;641;48.492;9.184;2023-05-19T16:41:26;15.20;52.80
1297;DHT22;641;48.492;9.184;2023-05-19T16:43:51;15.10;52.20
1297;DHT22;641;48.492;9.184;2023-05-19T16:46:17;15.10;52.00
1297;DHT22;641;48.492;9.184;2023-05-19T16:48:43;15.10;52.10
1297;DHT22;641;48.492;9.184;2023-05-19T16:51:08;15.10;51.90
1297;DHT22;641;48.492;9.184;2023-05-19T16:53:34;15.00;52.30
1297;DHT22;641;48.492;9.184;2023-05-19T16:55:59;15.00;53.00
1297;DHT22;641;48.492;9.184;2023-05-19T16:58:25;15.00;53.70